Time;durP1;ratioP1;P1;durP2;ratioP2;P2;SDS_P1;SDS_P2;PMS_P1;PMS_P2;Temp;Humidity;BMP_temperature;BMP_pressure;BME280_temperature;BME280_humidity;BME280_pressure;Samples;Min_cycle;Max_cycle;Signal;HPM_P1;HPM_P2
2022/02/15 00:02:00;;;;;;;3.08;1.50;;;5.40;97.40;;;;;;5026645;28;20109;-67
2022/02/15 00:04:25;;;;;;;3.70;1.42;;;5.40;97.60;;;;;;5032804;28;20037;-66
2022/02/15 00:06:51;;;;;;;2.42;1.42;;;5.40;97.70;;;;;;5036635;28;20038;-67
2022/02/15 00:09:16;;;;;;;3.83;1.40;;;5.50;97.60;;;;;;5033040;28;20307;-67
2022/02/15 00:11:42;;;;;;;3.42;1.40;;;5.40;97.60;;;;;;5037987;28;20418;-67
2022/02/15 00:14:08;;;;;;;4.18;1.25;;;5.40;97.80;;;;;;5038815;28;20033;-67
2022/02/15 00:16:33;;;;;;;3.22;1.38;;;5.40;97.90;;;;;;5037835;28;20036;-67
2022/02/15 00:18:59;;;;;;;2.60;1.30;;;5.30;97.80;;;;;;5038103;28;20064;-67
2022/02/15 00:21:25;;;;;;;2.65;1.30;;;5.20;98.00;;;;;;5031077;28;20052;-67
2022/02/15 00:23:50;;;;;;;3.72;1.52;;;5.30;98.00;;;;;;5037786;28;20390;-68
2022/02/15 00:26:16;;;;;;;5.32;1.50;;;5.30;98.00;;;;;;5038094;28;20025;-67
2022/02/15 00:28:42;;;;;;;3.28;1.83;;;5.30;98.00;;;;;;5038881;28;20057;-67
2022/02/15 00:31:07;;;;;;;2.88;1.33;;;5.20;98.00;;;;;;5037684;28;20021;-66
2022/02/15 00:33:33;;;;;;;3.53;1.45;;;5.20;98.00;;;;;;5036897;28;20046;-67
2022/02/15 00:35:59;;;;;;;3.10;1.30;;;5.20;98.00;;;;;;5038211;28;20033;-67
2022/02/15 00:38:27;;;;;;;3.08;1.30;;;5.30;98.00;;;;;;5038882;28;20025;-66
2022/02/15 00:40:53;;;;;;;3.25;1.40;;;5.30;97.80;;;;;;5036766;28;20034;-67
2022/02/15 00:43:18;;;;;;;3.30;1.30;;;5.40;97.90;;;;;;5037095;28;20041;-67
2022/02/15 00:45:44;;;;;;;3.47;1.38;;;5.30;97.80;;;;;;5037807;28;20033;-66
2022/02/15 00:48:10;;;;;;;2.13;1.17;;;5.30;97.90;;;;;;5037083;28;20072;-67
2022/02/15 00:50:35;;;;;;;2.78;1.10;;;5.30;97.70;;;;;;5038163;28;20405;-67
2022/02/15 00:53:01;;;;;;;4.72;1.25;;;5.30;97.60;;;;;;5035639;28;20096;-67
2022/02/15 00:55:27;;;;;;;4.88;1.27;;;5.30;97.60;;;;;;5036716;28;20033;-67
2022/02/15 00:57:53;;;;;;;6.60;1.23;;;5.30;97.70;;;;;;5038136;28;20025;-67
2022/02/15 01:00:18;;;;;;;5.97;1.20;;;5.40;97.30;;;;;;5036913;28;20055;-67
2022/02/15 01:02:45;;;;;;;3.60;1.17;;;5.50;96.90;;;;;;5030715;28;20043;-68
2022/02/15 01:05:11;;;;;;;3.83;1.30;;;5.50;96.80;;;;;;5035645;28;20022;-66
2022/02/15 01:07:37;;;;;;;4.50;1.38;;;5.60;96.50;;;;;;5037518;28;20362;-66
2022/02/15 01:10:04;;;;;;;3.42;1.45;;;5.60;96.30;;;;;;5037775;28;20117;-65
2022/02/15 01:12:30;;;;;;;2.67;1.05;;;5.60;96.50;;;;;;5037036;28;20017;-66
2022/02/15 01:14:56;;;;;;;3.15;1.20;;;5.50;96.70;;;;;;5036672;28;20108;-66
2022/02/15 01:17:22;;;;;;;2.63;1.20;;;5.40;96.90;;;;;;5036457;28;20033;-66
2022/02/15 01:19:51;;;;;;;4.47;1.30;;;5.40;96.90;;;;;;5037873;28;20029;-68
2022/02/15 01:22:16;;;;;;;3.95;1.40;;;5.40;96.80;;;;;;5038116;28;20104;-68
2022/02/15 01:24:42;;;;;;;4.50;1.13;;;5.30;96.90;;;;;;5038010;28;20432;-68
2022/02/15 01:27:08;;;;;;;4.13;1.52;;;5.30;96.90;;;;;;5034552;28;20039;-68
2022/02/15 01:29:33;;;;;;;7.20;1.45;;;5.30;96.90;;;;;;5037901;28;20419;-66
2022/02/15 01:31:59;;;;;;;7.90;1.50;;;5.30;96.90;;;;;;5037314;28;20041;-68
2022/02/15 01:34:25;;;;;;;5.82;1.40;;;5.30;96.90;;;;;;5035657;28;20024;-67
2022/02/15 01:36:51;;;;;;;6.53;1.30;;;5.30;96.60;;;;;;5025666;28;20065;-66
2022/02/15 01:39:16;;;;;;;5.80;1.60;;;5.30;96.40;;;;;;5037233;28;20299;-67
2022/02/15 01:41:43;;;;;;;5.57;1.65;;;5.30;96.60;;;;;;5037679;28;20044;-67
2022/02/15 01:44:09;;;;;;;3.78;1.20;;;5.20;96.50;;;;;;5037477;28;20360;-67
2022/02/15 01:46:38;;;;;;;6.00;1.20;;;5.10;96.60;;;;;;5036706;28;20077;-67
2022/02/15 01:49:04;;;;;;;7.80;1.80;;;5.10;96.60;;;;;;5033458;28;20432;-66
2022/02/15 01:51:32;;;;;;;4.93;1.38;;;5.10;96.60;;;;;;5037063;28;20025;-68
2022/02/15 01:53:58;;;;;;;4.93;1.60;;;5.10;96.50;;;;;;5037644;28;20346;-67
2022/02/15 01:56:26;;;;;;;7.13;1.48;;;5.20;96.10;;;;;;5036284;28;20037;-67
2022/02/15 01:58:52;;;;;;;4.90;1.70;;;5.20;96.30;;;;;;5035825;28;20030;-66
2022/02/15 02:01:17;;;;;;;5.72;1.63;;;5.20;95.90;;;;;;5023601;28;20025;-67
2022/02/15 02:03:43;;;;;;;3.35;1.13;;;5.20;95.50;;;;;;5035627;28;20030;-67
2022/02/15 02:06:09;;;;;;;4.45;1.15;;;5.20;94.70;;;;;;5032061;28;20114;-67
2022/02/15 02:08:35;;;;;;;6.50;1.33;;;5.20;94.60;;;;;;5037093;28;20032;-66
2022/02/15 02:11:03;;;;;;;3.25;1.10;;;5.10;94.50;;;;;;5029931;28;20025;-66
2022/02/15 02:13:29;;;;;;;6.10;1.40;;;5.30;93.50;;;;;;5036831;28;20052;-67
2022/02/15 02:15:55;;;;;;;5.88;1.35;;;5.30;92.80;;;;;;5029344;28;20053;-67
2022/02/15 02:18:21;;;;;;;5.32;1.30;;;5.40;92.60;;;;;;5034513;28;20045;-67
2022/02/15 02:20:47;;;;;;;6.22;1.30;;;5.50;92.40;;;;;;5034507;28;20338;-67
2022/02/15 02:23:15;;;;;;;4.03;1.20;;;5.50;92.50;;;;;;5036250;28;20053;-67
2022/02/15 02:25:41;;;;;;;4.78;1.20;;;5.40;92.70;;;;;;5036673;28;20033;-67
2022/02/15 02:28:08;;;;;;;5.43;1.80;;;5.40;92.80;;;;;;5035769;28;20453;-69
2022/02/15 02:30:34;;;;;;;7.03;1.58;;;5.40;92.80;;;;;;5035914;28;20057;-68
2022/02/15 02:33:00;;;;;;;4.90;1.35;;;5.40;93.20;;;;;;5034798;28;20065;-67
2022/02/15 02:35:25;;;;;;;3.42;1.15;;;5.30;93.20;;;;;;5032587;28;20112;-67
2022/02/15 02:37:51;;;;;;;5.35;1.30;;;5.30;93.40;;;;;;5036225;28;20025;-67
2022/02/15 02:40:19;;;;;;;4.32;1.30;;;5.20;93.60;;;;;;5036424;28;20048;-68
2022/02/15 02:42:45;;;;;;;4.88;1.35;;;5.20;93.40;;;;;;5031554;28;20041;-67
2022/02/15 02:45:16;;;;;;;1.80;0.93;;;5.20;93.60;;;;;;5034988;28;20078;-67
2022/02/15 02:47:46;;;;;;;4.03;1.30;;;5.20;93.20;;;;;;5034408;28;20068;-67
2022/02/15 02:50:14;;;;;;;5.15;1.30;;;5.10;93.40;;;;;;5036050;28;20032;-67
2022/02/15 02:52:40;;;;;;;6.10;1.30;;;5.10;93.50;;;;;;5036682;28;20028;-67
2022/02/15 02:55:06;;;;;;;5.13;1.60;;;5.00;93.90;;;;;;5035019;28;20100;-67
2022/02/15 02:57:35;;;;;;;5.65;1.58;;;4.90;94.10;;;;;;5034897;28;20029;-67
2022/02/15 03:00:05;;;;;;;5.03;1.52;;;4.80;94.20;;;;;;5034676;28;20425;-68
2022/02/15 03:02:31;;;;;;;3.67;1.20;;;4.90;94.40;;;;;;5032414;28;20406;-68
2022/02/15 03:04:57;;;;;;;4.88;1.23;;;4.90;94.20;;;;;;5033725;28;20029;-67
2022/02/15 03:07:22;;;;;;;3.72;1.40;;;5.00;94.30;;;;;;5022115;28;20032;-67
2022/02/15 03:09:48;;;;;;;5.57;1.30;;;5.10;94.20;;;;;;5031096;28;20079;-67
2022/02/15 03:12:15;;;;;;;4.90;1.20;;;5.30;94.00;;;;;;5036340;28;20021;-67
2022/02/15 03:14:41;;;;;;;5.90;1.80;;;5.40;94.00;;;;;;5031439;28;20113;-66
2022/02/15 03:17:07;;;;;;;3.13;1.20;;;5.40;93.80;;;;;;5031937;28;20112;-66
2022/02/15 03:19:32;;;;;;;3.15;1.27;;;5.40;93.60;;;;;;5030833;28;20034;-67
2022/02/15 03:21:59;;;;;;;5.25;1.30;;;5.50;93.90;;;;;;5036460;28;20081;-66
2022/02/15 03:24:25;;;;;;;5.30;1.40;;;5.50;93.80;;;;;;5034358;28;20120;-67
2022/02/15 03:26:51;;;;;;;5.78;1.30;;;5.50;93.80;;;;;;5030879;28;20025;-66
2022/02/15 03:29:17;;;;;;;9.32;2.03;;;5.40;94.00;;;;;;5035355;28;20024;-66
2022/02/15 03:31:43;;;;;;;3.55;1.52;;;5.40;94.20;;;;;;5033981;28;20018;-67
2022/02/15 03:34:09;;;;;;;6.63;1.25;;;5.50;94.40;;;;;;5034432;28;20033;-67
2022/02/15 03:36:35;;;;;;;5.78;1.20;;;5.50;94.40;;;;;;5034267;28;20041;-67
2022/02/15 03:39:03;;;;;;;3.33;1.20;;;5.50;94.60;;;;;;5034861;28;20056;-67
2022/02/15 03:44:16;;;;;;;3.50;1.20;;;5.50;95.10;;;;;;5031250;28;20075;-68
2022/02/15 03:46:41;;;;;;;4.90;1.48;;;5.50;95.20;;;;;;5032055;28;20026;-67
2022/02/15 03:49:11;;;;;;;3.83;1.30;;;5.50;95.30;;;;;;5033320;28;20029;-68
2022/02/15 03:51:40;;;;;;;2.67;1.20;;;5.50;95.50;;;;;;5030895;28;20421;-66
2022/02/15 03:54:07;;;;;;;3.72;1.40;;;5.50;95.60;;;;;;5034640;28;20026;-66
2022/02/15 03:56:33;;;;;;;3.03;1.27;;;5.50;95.70;;;;;;5030416;28;20076;-67
2022/02/15 03:59:00;;;;;;;5.22;1.33;;;5.60;95.70;;;;;;5034906;28;20083;-67
2022/02/15 04:01:26;;;;;;;4.30;1.45;;;5.60;95.70;;;;;;5032606;28;20037;-66
2022/02/15 04:03:55;;;;;;;3.42;1.23;;;5.60;95.60;;;;;;5033698;28;20037;-66
2022/02/15 04:06:21;;;;;;;3.72;1.27;;;5.60;95.50;;;;;;5034698;28;20033;-67
2022/02/15 04:08:46;;;;;;;2.88;1.30;;;5.60;95.60;;;;;;5033132;28;20544;-66
2022/02/15 04:11:12;;;;;;;4.00;1.33;;;5.60;95.70;;;;;;5033346;28;20441;-66
2022/02/15 04:13:38;;;;;;;5.70;1.35;;;5.50;95.90;;;;;;5034997;28;20025;-68
2022/02/15 04:16:05;;;;;;;1.75;0.82;;;5.60;95.70;;;;;;5033931;28;20045;-68
2022/02/15 04:18:31;;;;;;;4.40;1.30;;;5.60;95.60;;;;;;5033221;28;20037;-67
2022/02/15 04:20:57;;;;;;;4.32;1.35;;;5.60;95.60;;;;;;5033911;28;20021;-67
2022/02/15 04:23:22;;;;;;;4.40;1.52;;;5.60;95.40;;;;;;5030272;28;20037;-67
2022/02/15 04:25:48;;;;;;;4.32;1.20;;;5.70;95.30;;;;;;5034943;28;20033;-68
2022/02/15 04:28:17;;;;;;;2.92;1.30;;;5.70;95.40;;;;;;5033284;28;20315;-67
2022/02/15 04:30:43;;;;;;;4.72;1.38;;;5.70;95.30;;;;;;5034626;28;20403;-66
2022/02/15 04:33:13;;;;;;;3.25;1.40;;;5.60;95.30;;;;;;5033038;28;20037;-66
2022/02/15 04:35:39;;;;;;;4.90;1.38;;;5.60;95.50;;;;;;5035134;28;20021;-66
2022/02/15 04:38:07;;;;;;;5.13;1.50;;;5.60;95.40;;;;;;5035067;28;20029;-67
2022/02/15 04:40:33;;;;;;;3.95;1.33;;;5.60;95.50;;;;;;5034744;28;20048;-69
2022/02/15 04:42:58;;;;;;;3.78;1.63;;;5.60;95.60;;;;;;5023733;28;20030;-67
2022/02/15 04:45:24;;;;;;;4.72;1.30;;;5.60;95.70;;;;;;5031292;28;20033;-67
2022/02/15 04:47:49;;;;;;;3.47;1.38;;;5.60;95.70;;;;;;5033086;28;20326;-69
2022/02/15 04:50:15;;;;;;;2.78;1.20;;;5.50;95.70;;;;;;5034545;28;20458;-68
2022/02/15 04:52:41;;;;;;;3.45;1.30;;;5.50;95.70;;;;;;5037419;28;20520;-65
2022/02/15 04:55:07;;;;;;;3.63;1.30;;;5.50;95.90;;;;;;5036827;28;20041;-67
2022/02/15 04:57:34;;;;;;;4.97;1.35;;;5.50;95.90;;;;;;5035227;28;20065;-67
2022/02/15 05:00:00;;;;;;;3.90;1.67;;;5.50;95.90;;;;;;5036311;28;20021;-67
2022/02/15 05:02:25;;;;;;;10.55;4.30;;;5.50;95.90;;;;;;5036381;28;20503;-66
2022/02/15 05:04:51;;;;;;;5.90;2.38;;;5.60;95.90;;;;;;5037361;28;20365;-67
2022/02/15 05:07:21;;;;;;;37.63;11.20;;;5.60;95.70;;;;;;5036623;28;20030;-67
2022/02/15 05:09:47;;;;;;;61.97;20.67;;;5.60;95.80;;;;;;5034948;28;20033;-67
2022/02/15 05:12:14;;;;;;;30.02;11.68;;;5.50;96.00;;;;;;5049615;28;20025;-67
2022/02/15 05:14:40;;;;;;;17.85;7.28;;;5.40;96.20;;;;;;5030954;28;20021;-67
2022/02/15 05:17:06;;;;;;;11.88;5.35;;;5.30;96.40;;;;;;5035707;28;20083;-67
2022/02/15 05:19:33;;;;;;;4.82;2.30;;;5.30;96.70;;;;;;5035416;28;20041;-68
2022/02/15 05:21:59;;;;;;;6.32;2.33;;;5.20;96.80;;;;;;5037267;28;20418;-67
2022/02/15 05:24:25;;;;;;;7.97;2.80;;;5.10;96.90;;;;;;5035119;28;20424;-69
2022/02/15 05:26:50;;;;;;;5.07;2.40;;;5.20;97.20;;;;;;5036999;28;20037;-67
2022/02/15 05:29:16;;;;;;;8.13;4.15;;;5.10;97.10;;;;;;5037707;28;20026;-67
2022/02/15 05:31:42;;;;;;;12.95;4.18;;;5.10;97.40;;;;;;5037298;28;20410;-67
2022/02/15 05:34:07;;;;;;;12.63;6.20;;;5.10;97.60;;;;;;5035442;28;20300;-67
2022/02/15 05:36:33;;;;;;;9.02;3.30;;;5.10;97.60;;;;;;5037395;28;20029;-67
2022/02/15 05:39:00;;;;;;;7.28;3.92;;;5.10;97.80;;;;;;5036293;28;20025;-67
2022/02/15 05:41:26;;;;;;;6.53;2.80;;;5.10;97.60;;;;;;5035380;28;20045;-67
2022/02/15 05:43:52;;;;;;;4.30;2.03;;;5.10;97.80;;;;;;5027876;28;20021;-67
2022/02/15 05:46:18;;;;;;;10.90;3.97;;;5.10;97.80;;;;;;5036933;28;20041;-67
2022/02/15 05:48:44;;;;;;;9.15;4.07;;;5.10;97.60;;;;;;5035168;28;20279;-67
2022/02/15 05:51:12;;;;;;;9.55;3.10;;;5.10;97.80;;;;;;5036974;28;20021;-67
2022/02/15 05:53:37;;;;;;;6.82;2.90;;;5.10;97.60;;;;;;5032491;28;20037;-69
2022/02/15 05:56:05;;;;;;;8.85;3.25;;;5.10;97.80;;;;;;5037266;28;20033;-67
2022/02/15 05:58:32;;;;;;;6.75;2.60;;;5.20;97.60;;;;;;5031034;28;20434;-68
2022/02/15 06:00:59;;;;;;;7.88;2.97;;;5.10;97.60;;;;;;5037311;28;20032;-67
2022/02/15 06:06:09;;;;;;;8.18;2.70;;;5.00;98.00;;;;;;5036308;28;20072;-67
2022/02/15 06:08:34;;;;;;;8.10;3.45;;;4.90;98.00;;;;;;5036041;28;20058;-67
2022/02/15 06:11:01;;;;;;;5.38;2.97;;;4.90;98.00;;;;;;5034031;28;20104;-67
2022/02/15 06:13:27;;;;;;;8.30;2.90;;;4.90;98.00;;;;;;5035651;28;20033;-67
2022/02/15 06:15:53;;;;;;;5.63;2.38;;;4.90;98.00;;;;;;5025638;28;20076;-67
2022/02/15 06:18:18;;;;;;;6.57;2.25;;;5.00;98.00;;;;;;5021334;28;20030;-66
2022/02/15 06:20:44;;;;;;;5.18;2.55;;;5.00;98.00;;;;;;5028630;28;20525;-67
2022/02/15 06:23:12;;;;;;;5.82;2.50;;;5.00;98.00;;;;;;5034236;28;20048;-67
2022/02/15 06:25:38;;;;;;;6.30;2.65;;;5.10;98.00;;;;;;5036117;28;20373;-67
2022/02/15 06:28:04;;;;;;;5.72;2.50;;;5.10;98.00;;;;;;5033470;28;20037;-66
2022/02/15 06:30:30;;;;;;;6.78;3.50;;;5.10;98.00;;;;;;5036585;28;20087;-66
2022/02/15 06:32:56;;;;;;;7.18;3.97;;;5.10;98.00;;;;;;5034447;28;20041;-67
2022/02/15 06:35:22;;;;;;;9.00;3.67;;;5.10;98.00;;;;;;5048197;28;20076;-66
2022/02/15 06:37:50;;;;;;;7.30;2.83;;;5.10;98.00;;;;;;5043355;28;20039;-66
2022/02/15 06:40:17;;;;;;;6.85;3.17;;;5.10;98.00;;;;;;5038072;28;20109;-67
2022/02/15 06:42:45;;;;;;;6.78;2.95;;;5.10;98.00;;;;;;5040620;28;20543;-66
2022/02/15 06:45:11;;;;;;;9.90;3.00;;;5.10;98.00;;;;;;5035973;28;20026;-67
2022/02/15 06:47:36;;;;;;;4.80;2.63;;;5.20;98.00;;;;;;5033937;28;20037;-67
2022/02/15 06:50:04;;;;;;;5.85;2.70;;;5.20;98.00;;;;;;5034014;28;20370;-67
2022/02/15 06:52:30;;;;;;;5.85;2.80;;;5.20;98.00;;;;;;5035525;28;20071;-67
2022/02/15 06:54:56;;;;;;;4.22;2.00;;;5.20;98.00;;;;;;5031483;28;20029;-66
2022/02/15 06:57:21;;;;;;;5.65;2.50;;;5.20;98.00;;;;;;5021188;28;20489;-66
2022/02/15 06:59:49;;;;;;;5.00;2.42;;;5.20;98.00;;;;;;5018628;28;20040;-66
2022/02/15 07:02:18;;;;;;;4.55;2.20;;;5.20;98.00;;;;;;5035280;28;20029;-66
2022/02/15 07:04:47;;;;;;;6.03;2.50;;;5.20;98.00;;;;;;5027983;28;20029;-66
2022/02/15 07:07:13;;;;;;;5.40;2.38;;;5.20;98.00;;;;;;5035286;28;20038;-66
2022/02/15 07:09:42;;;;;;;4.75;2.15;;;5.30;98.00;;;;;;5035705;28;20040;-69
2022/02/15 07:12:09;;;;;;;5.57;2.63;;;5.30;98.00;;;;;;5023652;28;20036;-69
2022/02/15 07:14:36;;;;;;;6.18;2.67;;;5.40;97.90;;;;;;5035760;28;20038;-67
2022/02/15 07:17:02;;;;;;;5.15;3.08;;;5.40;97.80;;;;;;5033919;28;20033;-67
2022/02/15 07:19:32;;;;;;;5.40;2.35;;;5.40;97.60;;;;;;5034632;28;20025;-67
2022/02/15 07:21:58;;;;;;;6.22;3.03;;;5.50;97.70;;;;;;5035571;28;20064;-68
2022/02/15 07:24:23;;;;;;;7.70;3.25;;;5.50;97.30;;;;;;5027926;28;20022;-68
2022/02/15 07:26:49;;;;;;;14.10;7.40;;;5.40;97.50;;;;;;5029962;28;20025;-67
2022/02/15 07:29:15;;;;;;;10.40;4.45;;;5.40;97.60;;;;;;5028700;28;20017;-67
2022/02/15 07:31:41;;;;;;;10.45;5.55;;;5.40;97.60;;;;;;5020155;28;20067;-67
2022/02/15 07:34:10;;;;;;;8.77;4.93;;;5.40;97.70;;;;;;5028131;28;20057;-67
2022/02/15 07:36:38;;;;;;;6.65;3.47;;;5.30;97.80;;;;;;5015543;28;20032;-67
2022/02/15 07:39:04;;;;;;;8.80;4.90;;;5.30;97.80;;;;;;5028889;28;20430;-66
2022/02/15 07:41:30;;;;;;;10.52;4.70;;;5.30;97.90;;;;;;5021843;28;20419;-65
2022/02/15 07:43:56;;;;;;;8.65;4.05;;;5.30;98.00;;;;;;5047187;28;20061;-67
2022/02/15 07:46:23;;;;;;;13.20;5.82;;;5.30;98.00;;;;;;5034789;28;20323;-68
2022/02/15 07:48:49;;;;;;;9.93;4.30;;;5.30;98.00;;;;;;5033989;28;20033;-67
2022/02/15 07:51:16;;;;;;;11.73;4.35;;;5.30;98.00;;;;;;5035881;28;20021;-68
2022/02/15 07:53:41;;;;;;;7.15;3.75;;;5.30;98.00;;;;;;5035294;28;20026;-67
2022/02/15 07:56:07;;;;;;;10.32;3.70;;;5.30;98.00;;;;;;5035411;28;20022;-68
2022/02/15 07:58:33;;;;;;;7.43;3.95;;;5.30;98.00;;;;;;5035682;28;20100;-67
2022/02/15 08:00:59;;;;;;;7.82;4.32;;;5.30;98.00;;;;;;5035379;28;20034;-66
2022/02/15 08:03:25;;;;;;;7.25;4.18;;;5.20;98.00;;;;;;5034613;28;20025;-68
2022/02/15 08:05:51;;;;;;;9.25;3.95;;;5.00;98.00;;;;;;5035574;28;20092;-67
2022/02/15 08:08:17;;;;;;;7.90;4.30;;;4.90;98.00;;;;;;5035792;28;20101;-67
2022/02/15 08:10:44;;;;;;;7.35;4.30;;;4.70;98.00;;;;;;5032621;28;20631;-67
2022/02/15 08:13:10;;;;;;;8.65;4.60;;;4.60;98.00;;;;;;5028914;28;20028;-68
2022/02/15 08:15:40;;;;;;;10.70;5.45;;;4.60;98.00;;;;;;5031786;28;20108;-67
2022/02/15 08:18:06;;;;;;;10.75;6.13;;;4.50;98.00;;;;;;5029135;28;20037;-67
2022/02/15 08:20:33;;;;;;;10.23;5.65;;;4.50;98.00;;;;;;5030357;28;20022;-67
2022/02/15 08:22:59;;;;;;;11.88;6.93;;;4.40;98.00;;;;;;5029818;28;20414;-67
2022/02/15 08:25:25;;;;;;;13.80;7.93;;;4.40;98.00;;;;;;5030386;28;20038;-67
2022/02/15 08:27:52;;;;;;;13.82;7.38;;;4.50;98.00;;;;;;5032980;28;20032;-68
2022/02/15 08:30:18;;;;;;;10.38;6.07;;;4.50;98.00;;;;;;5035116;28;20014;-68
2022/02/15 08:32:43;;;;;;;10.38;6.60;;;4.40;98.00;;;;;;5033156;28;20064;-67
2022/02/15 08:35:10;;;;;;;10.55;6.65;;;4.40;98.00;;;;;;5033011;28;20029;-68
2022/02/15 08:37:36;;;;;;;11.70;6.70;;;4.50;98.00;;;;;;5033497;28;20033;-68
2022/02/15 08:40:04;;;;;;;10.45;6.80;;;4.60;98.00;;;;;;5033029;28;20334;-68
2022/02/15 08:42:30;;;;;;;12.73;7.75;;;4.60;98.00;;;;;;5034257;28;20032;-68
2022/02/15 08:44:56;;;;;;;12.48;6.45;;;4.70;98.00;;;;;;5034617;28;20022;-68
2022/02/15 08:47:22;;;;;;;12.65;6.63;;;4.70;98.00;;;;;;5033313;28;20048;-68
2022/02/15 08:49:52;;;;;;;10.25;6.53;;;4.60;98.00;;;;;;5033434;28;20068;-67
2022/02/15 08:52:19;;;;;;;9.77;6.50;;;4.70;98.00;;;;;;5033659;28;20022;-67
2022/02/15 08:54:49;;;;;;;11.10;7.10;;;4.90;98.00;;;;;;5036671;28;20444;-68
2022/02/15 08:57:15;;;;;;;7.13;4.60;;;5.10;98.00;;;;;;5032817;28;20380;-68
2022/02/15 08:59:42;;;;;;;7.63;4.60;;;5.60;98.00;;;;;;5032503;28;20057;-68
2022/02/15 09:02:08;;;;;;;7.88;4.38;;;5.80;98.00;;;;;;5034385;28;20333;-67
2022/02/15 09:04:34;;;;;;;8.38;5.15;;;5.80;98.00;;;;;;5034025;28;20029;-68
2022/02/15 09:07:03;;;;;;;12.50;7.07;;;5.60;98.00;;;;;;5033332;28;20116;-67
2022/02/15 09:09:28;;;;;;;8.90;5.53;;;5.40;98.00;;;;;;5034044;28;20026;-67
2022/02/15 09:11:54;;;;;;;8.85;5.00;;;5.30;98.00;;;;;;5033326;28;20052;-68
2022/02/15 09:14:20;;;;;;;9.20;5.80;;;5.20;98.00;;;;;;5033308;28;20337;-67
2022/02/15 09:16:45;;;;;;;8.77;5.25;;;5.20;98.00;;;;;;5032758;28;20433;-68
2022/02/15 09:19:12;;;;;;;8.95;5.57;;;5.30;98.00;;;;;;5031352;28;20377;-68
2022/02/15 09:21:39;;;;;;;11.00;6.97;;;5.20;98.00;;;;;;5032543;28;20374;-67
2022/02/15 09:24:06;;;;;;;12.23;6.40;;;5.20;98.00;;;;;;5034149;28;20025;-68
2022/02/15 09:26:32;;;;;;;8.25;4.82;;;5.20;98.00;;;;;;5032686;28;20039;-66
2022/02/15 09:28:58;;;;;;;8.30;4.75;;;5.10;98.00;;;;;;5033083;28;20490;-67
2022/02/15 09:31:24;;;;;;;7.60;4.03;;;4.90;98.00;;;;;;5034187;28;20112;-67
2022/02/15 09:33:52;;;;;;;7.20;4.15;;;4.80;98.00;;;;;;5030915;28;20064;-67
2022/02/15 09:36:22;;;;;;;7.80;4.22;;;4.70;98.00;;;;;;5032534;28;20025;-67
2022/02/15 09:38:50;;;;;;;7.55;3.55;;;4.60;98.00;;;;;;5029560;28;20072;-67
2022/02/15 09:41:20;;;;;;;6.90;3.83;;;4.50;98.00;;;;;;5032915;28;20029;-66
2022/02/15 09:43:46;;;;;;;7.28;3.67;;;4.50;98.00;;;;;;5033227;28;20416;-67
2022/02/15 09:46:14;;;;;;;7.57;3.97;;;4.50;98.00;;;;;;5032392;28;20038;-66
2022/02/15 09:48:41;;;;;;;7.47;3.45;;;4.60;98.00;;;;;;5031134;28;20109;-67
2022/02/15 09:51:08;;;;;;;6.53;3.75;;;4.60;98.00;;;;;;5032800;28;20025;-67
2022/02/15 09:53:34;;;;;;;7.18;3.70;;;4.70;98.00;;;;;;5034929;28;20068;-66
2022/02/15 09:56:00;;;;;;;6.28;3.20;;;4.90;98.00;;;;;;5035500;28;20057;-66
2022/02/15 09:58:26;;;;;;;5.45;2.80;;;4.80;98.00;;;;;;5032481;28;20422;-66
2022/02/15 10:00:55;;;;;;;7.93;3.55;;;4.80;98.00;;;;;;5035097;28;20104;-66
2022/02/15 10:03:21;;;;;;;6.05;3.28;;;4.90;98.00;;;;;;5033534;28;20029;-67
2022/02/15 10:05:49;;;;;;;6.07;3.60;;;4.90;98.00;;;;;;5032684;28;20442;-66
2022/02/15 10:08:15;;;;;;;5.97;3.08;;;4.80;98.00;;;;;;5031529;28;20490;-67
2022/02/15 10:10:40;;;;;;;5.65;3.00;;;4.70;98.00;;;;;;5029564;28;20021;-67
2022/02/15 10:13:08;;;;;;;9.77;4.93;;;4.60;98.00;;;;;;5036321;28;20037;-67
2022/02/15 10:15:39;;;;;;;8.15;3.55;;;4.60;98.00;;;;;;5036342;28;20029;-67
2022/02/15 10:18:09;;;;;;;6.38;3.50;;;4.60;98.00;;;;;;5032003;28;20040;-67
2022/02/15 10:20:36;;;;;;;4.68;2.80;;;4.70;98.00;;;;;;5032034;28;20317;-67
2022/02/15 10:23:20;;;;;;;6.47;2.80;;;5.00;98.00;;;;;;5045075;28;20116;-67
2022/02/15 10:25:48;;;;;;;5.82;3.08;;;5.30;98.00;;;;;;5043811;28;20099;-66
2022/02/15 10:28:18;;;;;;;10.40;5.10;;;5.50;98.00;;;;;;5031689;28;20057;-66
2022/02/15 10:31:05;;;;;;;5.90;2.95;;;5.60;98.00;;;;;;5032670;28;20024;-67
2022/02/15 10:33:35;;;;;;;5.68;2.72;;;5.50;98.00;;;;;;5029414;28;20107;-67
2022/02/15 10:36:11;;;;;;;4.93;2.60;;;5.70;98.00;;;;;;5032412;28;20030;-67
2022/02/15 10:38:49;;;;;;;3.70;2.13;;;6.00;98.00;;;;;;5036433;28;20021;-67
2022/02/15 10:41:21;;;;;;;4.22;1.77;;;6.10;98.00;;;;;;5036668;28;20030;-67
2022/02/15 10:43:57;;;;;;;4.47;2.08;;;6.00;98.00;;;;;;5036876;28;20437;-67
2022/02/15 10:46:31;;;;;;;5.72;2.20;;;5.80;98.00;;;;;;5036179;28;20069;-67
2022/02/15 10:48:58;;;;;;;5.50;2.47;;;5.90;98.00;;;;;;5034932;28;20099;-68
2022/02/15 10:51:27;;;;;;;6.50;2.97;;;6.00;98.00;;;;;;5036509;28;20026;-67
2022/02/15 10:53:52;;;;;;;5.18;2.08;;;5.90;97.20;;;;;;5034233;28;20175;-67
2022/02/15 10:56:19;;;;;;;5.63;2.30;;;5.70;97.10;;;;;;5025590;28;20466;-66
2022/02/15 10:58:51;;;;;;;4.70;2.60;;;6.00;97.80;;;;;;5036666;28;20037;-67
2022/02/15 11:01:17;;;;;;;4.38;2.00;;;6.40;97.20;;;;;;5036534;28;20021;-67
2022/02/15 11:03:43;;;;;;;6.72;2.20;;;6.40;95.90;;;;;;5034665;28;20044;-67
2022/02/15 11:06:10;;;;;;;5.38;2.20;;;6.20;96.50;;;;;;5035608;28;20022;-68
2022/02/15 11:08:37;;;;;;;5.72;2.60;;;6.40;96.30;;;;;;5036336;28;20025;-68
2022/02/15 11:11:19;;;;;;;4.60;2.10;;;6.60;95.50;;;;;;5036594;28;20028;-67
2022/02/15 11:13:48;;;;;;;5.57;2.67;;;7.20;95.10;;;;;;5036050;28;20389;-66
2022/02/15 11:16:16;;;;;;;4.80;2.00;;;7.60;93.10;;;;;;5036441;28;20084;-66
2022/02/15 11:18:44;;;;;;;5.82;2.42;;;7.30;92.80;;;;;;5034406;28;20029;-68
2022/02/15 11:21:20;;;;;;;6.15;2.72;;;7.20;93.40;;;;;;5036382;28;20415;-67
2022/02/15 11:24:06;;;;;;;5.85;2.88;;;6.90;93.90;;;;;;5035997;28;20030;-67
2022/02/15 11:26:35;;;;;;;6.07;2.20;;;6.90;94.40;;;;;;5036350;28;20030;-66
2022/02/15 11:29:02;;;;;;;5.03;2.58;;;6.70;92.50;;;;;;5036080;28;20042;-67
2022/02/15 11:31:31;;;;;;;13.38;5.85;;;6.50;94.00;;;;;;5035647;28;20116;-66
2022/02/15 11:34:00;;;;;;;7.25;2.70;;;6.50;94.70;;;;;;5049268;28;20029;-68
2022/02/15 11:36:26;;;;;;;4.95;2.53;;;6.40;95.00;;;;;;5036135;28;20035;-66
2022/02/15 11:38:58;;;;;;;7.78;3.30;;;6.30;95.50;;;;;;5035568;28;20029;-66
2022/02/15 11:41:26;;;;;;;8.23;3.20;;;6.20;95.10;;;;;;5036366;28;20079;-67
2022/02/15 11:43:58;;;;;;;8.82;4.18;;;6.20;93.40;;;;;;5035848;28;20079;-66
2022/02/15 11:46:31;;;;;;;13.02;6.10;;;6.30;92.60;;;;;;5036015;28;20029;-66
2022/02/15 11:49:11;;;;;;;10.00;4.30;;;6.40;93.40;;;;;;5033321;28;20481;-67
2022/02/15 11:51:37;;;;;;;6.40;2.63;;;6.70;92.70;;;;;;5035979;28;20057;-67
2022/02/15 11:54:09;;;;;;;7.43;3.58;;;6.90;91.70;;;;;;5035694;28;20030;-67
2022/02/15 11:56:35;;;;;;;4.88;2.38;;;7.20;91.00;;;;;;5036071;28;20021;-67
2022/02/15 11:59:11;;;;;;;6.20;2.67;;;7.40;89.70;;;;;;5027479;28;20029;-67
2022/02/15 12:01:42;;;;;;;7.07;2.58;;;8.10;88.90;;;;;;5023328;28;20117;-66
2022/02/15 12:04:11;;;;;;;7.15;2.60;;;8.40;87.00;;;;;;5017584;28;20029;-69
2022/02/15 12:06:42;;;;;;;5.78;2.38;;;7.70;87.60;;;;;;5033458;28;20029;-66
2022/02/15 12:09:09;;;;;;;4.32;2.13;;;7.00;89.00;;;;;;5033619;28;20480;-67
2022/02/15 12:11:46;;;;;;;4.65;2.15;;;6.60;89.20;;;;;;5033888;28;20151;-67
2022/02/15 12:14:14;;;;;;;4.20;2.20;;;6.30;90.10;;;;;;5028507;28;20038;-66
2022/02/15 12:16:44;;;;;;;6.18;2.55;;;6.10;91.80;;;;;;5026871;28;20040;-66
2022/02/15 12:19:20;;;;;;;6.35;2.72;;;6.00;92.40;;;;;;5033887;28;20025;-67
2022/02/15 12:21:46;;;;;;;5.03;2.80;;;5.90;92.70;;;;;;5034451;28;20371;-66
2022/02/15 12:24:11;;;;;;;7.55;2.80;;;5.80;93.00;;;;;;5035671;28;20066;-66
2022/02/15 12:26:43;;;;;;;5.13;2.53;;;5.80;93.40;;;;;;5035331;28;20026;-68
2022/02/15 12:29:10;;;;;;;7.38;2.60;;;6.00;92.90;;;;;;5035465;28;20040;-67
2022/02/15 12:31:37;;;;;;;7.82;3.33;;;6.10;92.00;;;;;;5039285;28;20401;-67
2022/02/15 12:34:04;;;;;;;12.25;4.70;;;6.30;92.10;;;;;;5052759;28;20481;-67
2022/02/15 12:36:32;;;;;;;7.72;4.00;;;6.70;90.70;;;;;;5021777;28;20037;-66
2022/02/15 12:38:58;;;;;;;6.13;3.10;;;7.70;89.30;;;;;;5035219;28;20430;-66
2022/02/15 12:41:24;;;;;;;5.65;2.70;;;8.70;85.20;;;;;;5034833;28;20036;-66
2022/02/15 12:43:58;;;;;;;6.43;3.58;;;9.00;84.10;;;;;;5033281;28;20034;-66
2022/02/15 12:46:28;;;;;;;10.77;4.95;;;9.40;82.90;;;;;;5034400;28;20338;-65
2022/02/15 12:48:59;;;;;;;9.02;3.95;;;9.60;81.10;;;;;;5033535;28;20439;-66
2022/02/15 12:51:30;;;;;;;4.70;2.05;;;9.70;80.00;;;;;;5033484;28;20043;-66
2022/02/15 12:53:58;;;;;;;5.07;2.08;;;9.40;79.20;;;;;;5033488;28;20021;-66
2022/02/15 12:56:27;;;;;;;4.50;2.00;;;9.20;80.00;;;;;;5033259;28;20022;-66
2022/02/15 12:58:56;;;;;;;3.70;2.08;;;9.00;80.60;;;;;;5033915;28;20061;-67
2022/02/15 13:01:22;;;;;;;5.28;2.10;;;9.30;81.30;;;;;;5033949;28;20112;-68